sensor_id;sensor_type;location;lat;lon;timestamp;P1;durP1;ratioP1;P2;durP2;ratioP2
29574;SDS011;16507;51.046;6.406;2022-12-11T00:00:04;109.30;;;32.25;;
29574;SDS011;16507;51.046;6.406;2022-12-11T00:02:30;112.30;;;33.80;;
29574;SDS011;16507;51.046;6.406;2022-12-11T00:04:56;119.85;;;33.42;;
29574;SDS011;16507;51.046;6.406;2022-12-11T00:07:21;135.18;;;36.17;;
29574;SDS011;16507;51.046;6.406;2022-12-11T00:09:47;126.95;;;34.03;;
29574;SDS011;16507;51.046;6.406;2022-12-11T00:12:13;124.65;;;35.17;;
29574;SDS011;16507;51.046;6.406;2022-12-11T00:14:39;142.50;;;38.15;;
29574;SDS011;16507;51.046;6.406;2022-12-11T00:17:04;114.38;;;34.67;;
29574;SDS011;16507;51.046;6.406;2022-12-11T00:19:30;89.57;;;28.42;;
29574;SDS011;16507;51.046;6.406;2022-12-11T00:21:55;91.75;;;30.00;;
29574;SDS011;16507;51.046;6.406;2022-12-11T00:24:21;90.80;;;30.70;;
29574;SDS011;16507;51.046;6.406;2022-12-11T00:26:47;83.95;;;27.85;;
29574;SDS011;16507;51.046;6.406;2022-12-11T00:29:12;94.15;;;30.52;;
29574;SDS011;16507;51.046;6.406;2022-12-11T00:31:39;95.05;;;32.05;;
29574;SDS011;16507;51.046;6.406;2022-12-11T00:34:05;112.03;;;32.03;;
29574;SDS011;16507;51.046;6.406;2022-12-11T00:36:31;93.38;;;30.95;;
29574;SDS011;16507;51.046;6.406;2022-12-11T00:38:57;105.60;;;31.92;;
29574;SDS011;16507;51.046;6.406;2022-12-11T00:41:23;118.32;;;32.15;;
29574;SDS011;16507;51.046;6.406;2022-12-11T00:43:49;107.95;;;33.35;;
29574;SDS011;16507;51.046;6.406;2022-12-11T00:46:15;113.13;;;34.20;;
29574;SDS011;16507;51.046;6.406;2022-12-11T00:48:40;99.63;;;32.28;;
29574;SDS011;16507;51.046;6.406;2022-12-11T00:51:06;121.85;;;34.25;;
29574;SDS011;16507;51.046;6.406;2022-12-11T00:53:32;104.50;;;32.72;;
29574;SDS011;16507;51.046;6.406;2022-12-11T00:55:58;106.40;;;33.15;;
29574;SDS011;16507;51.046;6.406;2022-12-11T00:58:23;114.57;;;33.80;;
29574;SDS011;16507;51.046;6.406;2022-12-11T01:00:49;99.10;;;32.10;;
29574;SDS011;16507;51.046;6.406;2022-12-11T01:03:16;105.70;;;33.20;;
29574;SDS011;16507;51.046;6.406;2022-12-11T01:05:49;97.85;;;32.50;;
29574;SDS011;16507;51.046;6.406;2022-12-11T01:08:16;102.75;;;32.05;;
29574;SDS011;16507;51.046;6.406;2022-12-11T01:10:41;99.45;;;32.78;;
29574;SDS011;16507;51.046;6.406;2022-12-11T01:13:07;107.35;;;32.92;;
29574;SDS011;16507;51.046;6.406;2022-12-11T01:15:38;107.10;;;34.05;;
29574;SDS011;16507;51.046;6.406;2022-12-11T01:18:05;114.78;;;32.22;;
29574;SDS011;16507;51.046;6.406;2022-12-11T01:20:31;104.47;;;33.80;;
29574;SDS011;16507;51.046;6.406;2022-12-11T01:22:57;107.00;;;34.17;;
29574;SDS011;16507;51.046;6.406;2022-12-11T01:25:25;103.32;;;33.45;;
29574;SDS011;16507;51.046;6.406;2022-12-11T01:27:52;112.18;;;33.08;;
29574;SDS011;16507;51.046;6.406;2022-12-11T01:30:19;99.30;;;31.75;;
29574;SDS011;16507;51.046;6.406;2022-12-11T01:32:46;98.07;;;32.75;;
29574;SDS011;16507;51.046;6.406;2022-12-11T01:35:12;96.07;;;29.63;;
29574;SDS011;16507;51.046;6.406;2022-12-11T01:37:39;84.75;;;29.15;;
29574;SDS011;16507;51.046;6.406;2022-12-11T01:40:05;82.13;;;28.55;;
29574;SDS011;16507;51.046;6.406;2022-12-11T01:42:32;81.38;;;27.35;;
29574;SDS011;16507;51.046;6.406;2022-12-11T01:47:46;79.22;;;28.38;;
29574;SDS011;16507;51.046;6.406;2022-12-11T01:50:17;96.57;;;29.02;;
29574;SDS011;16507;51.046;6.406;2022-12-11T01:52:44;99.80;;;29.27;;
29574;SDS011;16507;51.046;6.406;2022-12-11T01:55:12;99.95;;;30.15;;
29574;SDS011;16507;51.046;6.406;2022-12-11T01:57:40;95.15;;;29.25;;
29574;SDS011;16507;51.046;6.406;2022-12-11T02:00:07;107.20;;;30.95;;
29574;SDS011;16507;51.046;6.406;2022-12-11T02:02:33;90.13;;;27.75;;
29574;SDS011;16507;51.046;6.406;2022-12-11T02:05:02;102.75;;;29.88;;
29574;SDS011;16507;51.046;6.406;2022-12-11T02:07:29;94.90;;;28.65;;
29574;SDS011;16507;51.046;6.406;2022-12-11T02:10:27;97.10;;;28.27;;
29574;SDS011;16507;51.046;6.406;2022-12-11T02:13:20;88.03;;;24.58;;
29574;SDS011;16507;51.046;6.406;2022-12-11T02:16:16;84.30;;;26.00;;
29574;SDS011;16507;51.046;6.406;2022-12-11T02:21:56;76.95;;;24.05;;
29574;SDS011;16507;51.046;6.406;2022-12-11T02:27:13;77.03;;;23.63;;
29574;SDS011;16507;51.046;6.406;2022-12-11T02:29:49;79.70;;;24.20;;
29574;SDS011;16507;51.046;6.406;2022-12-11T02:32:26;78.43;;;24.88;;
29574;SDS011;16507;51.046;6.406;2022-12-11T02:35:05;80.28;;;25.73;;
29574;SDS011;16507;51.046;6.406;2022-12-11T02:37:36;82.22;;;25.40;;
29574;SDS011;16507;51.046;6.406;2022-12-11T02:40:06;97.15;;;28.90;;
29574;SDS011;16507;51.046;6.406;2022-12-11T02:42:35;93.88;;;28.17;;
29574;SDS011;16507;51.046;6.406;2022-12-11T02:45:03;98.97;;;29.30;;
29574;SDS011;16507;51.046;6.406;2022-12-11T02:47:30;100.90;;;30.35;;
29574;SDS011;16507;51.046;6.406;2022-12-11T02:49:57;95.03;;;28.52;;
29574;SDS011;16507;51.046;6.406;2022-12-11T02:52:26;92.43;;;28.58;;
29574;SDS011;16507;51.046;6.406;2022-12-11T02:54:54;105.38;;;31.58;;
29574;SDS011;16507;51.046;6.406;2022-12-11T02:57:30;90.65;;;29.63;;
29574;SDS011;16507;51.046;6.406;2022-12-11T03:00:03;89.97;;;28.75;;
29574;SDS011;16507;51.046;6.406;2022-12-11T03:02:29;98.57;;;30.88;;
29574;SDS011;16507;51.046;6.406;2022-12-11T03:04:54;96.20;;;30.17;;
29574;SDS011;16507;51.046;6.406;2022-12-11T03:07:25;99.65;;;28.83;;
29574;SDS011;16507;51.046;6.406;2022-12-11T03:09:55;82.30;;;26.65;;
29574;SDS011;16507;51.046;6.406;2022-12-11T03:12:26;78.18;;;26.50;;
29574;SDS011;16507;51.046;6.406;2022-12-11T03:14:54;94.47;;;28.42;;
29574;SDS011;16507;51.046;6.406;2022-12-11T03:17:23;83.93;;;27.65;;
29574;SDS011;16507;51.046;6.406;2022-12-11T03:19:59;77.72;;;27.17;;
29574;SDS011;16507;51.046;6.406;2022-12-11T03:25:22;76.32;;;26.35;;
29574;SDS011;16507;51.046;6.406;2022-12-11T03:28:08;81.55;;;25.27;;
29574;SDS011;16507;51.046;6.406;2022-12-11T03:30:37;74.97;;;26.13;;
29574;SDS011;16507;51.046;6.406;2022-12-11T03:33:06;79.60;;;26.05;;
29574;SDS011;16507;51.046;6.406;2022-12-11T03:35:55;72.05;;;24.83;;
29574;SDS011;16507;51.046;6.406;2022-12-11T03:38:33;62.70;;;23.20;;
29574;SDS011;16507;51.046;6.406;2022-12-11T03:41:04;60.05;;;23.25;;
29574;SDS011;16507;51.046;6.406;2022-12-11T03:43:32;59.05;;;22.27;;
29574;SDS011;16507;51.046;6.406;2022-12-11T03:45:59;56.47;;;21.77;;
29574;SDS011;16507;51.046;6.406;2022-12-11T03:48:26;54.83;;;20.65;;
29574;SDS011;16507;51.046;6.406;2022-12-11T03:50:57;58.22;;;21.35;;
29574;SDS011;16507;51.046;6.406;2022-12-11T03:53:24;56.65;;;21.63;;
29574;SDS011;16507;51.046;6.406;2022-12-11T03:55:51;57.42;;;21.00;;
29574;SDS011;16507;51.046;6.406;2022-12-11T03:58:20;56.70;;;21.45;;
29574;SDS011;16507;51.046;6.406;2022-12-11T04:00:45;49.20;;;19.98;;
29574;SDS011;16507;51.046;6.406;2022-12-11T04:03:11;51.17;;;20.33;;
29574;SDS011;16507;51.046;6.406;2022-12-11T04:05:36;54.17;;;21.27;;
29574;SDS011;16507;51.046;6.406;2022-12-11T04:08:03;53.88;;;21.25;;
29574;SDS011;16507;51.046;6.406;2022-12-11T04:10:28;53.05;;;21.10;;
29574;SDS011;16507;51.046;6.406;2022-12-11T04:12:54;56.10;;;20.77;;
29574;SDS011;16507;51.046;6.406;2022-12-11T04:15:20;52.55;;;20.98;;
29574;SDS011;16507;51.046;6.406;2022-12-11T04:17:45;57.53;;;21.25;;
29574;SDS011;16507;51.046;6.406;2022-12-11T04:20:30;58.70;;;22.33;;
29574;SDS011;16507;51.046;6.406;2022-12-11T04:23:15;59.75;;;23.02;;
29574;SDS011;16507;51.046;6.406;2022-12-11T04:28:30;62.30;;;23.13;;
29574;SDS011;16507;51.046;6.406;2022-12-11T04:30:56;63.75;;;23.13;;
29574;SDS011;16507;51.046;6.406;2022-12-11T04:33:21;59.63;;;23.75;;
29574;SDS011;16507;51.046;6.406;2022-12-11T04:35:47;58.08;;;23.98;;
29574;SDS011;16507;51.046;6.406;2022-12-11T04:38:12;64.50;;;23.80;;
29574;SDS011;16507;51.046;6.406;2022-12-11T04:40:38;56.63;;;22.13;;
29574;SDS011;16507;51.046;6.406;2022-12-11T04:43:03;61.03;;;23.00;;
29574;SDS011;16507;51.046;6.406;2022-12-11T04:45:29;73.80;;;23.38;;
29574;SDS011;16507;51.046;6.406;2022-12-11T04:47:55;60.30;;;23.50;;
29574;SDS011;16507;51.046;6.406;2022-12-11T04:50:20;61.17;;;21.88;;
29574;SDS011;16507;51.046;6.406;2022-12-11T04:52:46;67.28;;;24.08;;
29574;SDS011;16507;51.046;6.406;2022-12-11T04:55:11;64.28;;;23.48;;
29574;SDS011;16507;51.046;6.406;2022-12-11T04:57:37;63.58;;;22.25;;
29574;SDS011;16507;51.046;6.406;2022-12-11T05:00:05;64.50;;;23.35;;
29574;SDS011;16507;51.046;6.406;2022-12-11T05:02:33;62.72;;;23.10;;
29574;SDS011;16507;51.046;6.406;2022-12-11T05:05:00;53.75;;;22.73;;
29574;SDS011;16507;51.046;6.406;2022-12-11T05:07:27;63.78;;;23.05;;
29574;SDS011;16507;51.046;6.406;2022-12-11T05:09:52;53.20;;;21.65;;
29574;SDS011;16507;51.046;6.406;2022-12-11T05:12:18;55.92;;;21.95;;
29574;SDS011;16507;51.046;6.406;2022-12-11T05:14:44;60.05;;;20.52;;
29574;SDS011;16507;51.046;6.406;2022-12-11T05:17:09;49.75;;;19.95;;
29574;SDS011;16507;51.046;6.406;2022-12-11T05:19:35;54.58;;;20.77;;
29574;SDS011;16507;51.046;6.406;2022-12-11T05:22:00;48.55;;;20.33;;
29574;SDS011;16507;51.046;6.406;2022-12-11T05:24:26;61.85;;;21.85;;
29574;SDS011;16507;51.046;6.406;2022-12-11T05:26:52;60.55;;;20.50;;
29574;SDS011;16507;51.046;6.406;2022-12-11T05:29:17;50.00;;;20.23;;
29574;SDS011;16507;51.046;6.406;2022-12-11T05:31:43;58.58;;;20.83;;
29574;SDS011;16507;51.046;6.406;2022-12-11T05:34:08;53.97;;;20.17;;
29574;SDS011;16507;51.046;6.406;2022-12-11T05:36:34;50.92;;;19.40;;
29574;SDS011;16507;51.046;6.406;2022-12-11T05:39:00;53.92;;;20.20;;
29574;SDS011;16507;51.046;6.406;2022-12-11T05:41:26;44.25;;;18.95;;
29574;SDS011;16507;51.046;6.406;2022-12-11T05:43:54;42.97;;;17.13;;
29574;SDS011;16507;51.046;6.406;2022-12-11T05:46:21;51.50;;;18.45;;
29574;SDS011;16507;51.046;6.406;2022-12-11T05:48:49;46.70;;;18.15;;
29574;SDS011;16507;51.046;6.406;2022-12-11T05:51:18;42.72;;;17.70;;
29574;SDS011;16507;51.046;6.406;2022-12-11T05:53:45;50.85;;;18.85;;
29574;SDS011;16507;51.046;6.406;2022-12-11T05:56:12;49.08;;;19.13;;
29574;SDS011;16507;51.046;6.406;2022-12-11T05:58:43;44.55;;;17.92;;
29574;SDS011;16507;51.046;6.406;2022-12-11T06:01:10;40.15;;;17.45;;
29574;SDS011;16507;51.046;6.406;2022-12-11T06:03:51;40.30;;;17.63;;
29574;SDS011;16507;51.046;6.406;2022-12-11T06:06:18;42.78;;;17.02;;
29574;SDS011;16507;51.046;6.406;2022-12-11T06:08:44;35.67;;;17.00;;
29574;SDS011;16507;51.046;6.406;2022-12-11T06:11:12;37.88;;;16.45;;
29574;SDS011;16507;51.046;6.406;2022-12-11T06:13:38;39.20;;;15.90;;
29574;SDS011;16507;51.046;6.406;2022-12-11T06:16:04;37.05;;;15.43;;
29574;SDS011;16507;51.046;6.406;2022-12-11T06:18:34;36.25;;;16.17;;
29574;SDS011;16507;51.046;6.406;2022-12-11T06:21:14;37.03;;;15.65;;
29574;SDS011;16507;51.046;6.406;2022-12-11T06:23:45;29.73;;;13.60;;
29574;SDS011;16507;51.046;6.406;2022-12-11T06:26:11;30.38;;;14.98;;
29574;SDS011;16507;51.046;6.406;2022-12-11T06:28:38;40.15;;;17.33;;
29574;SDS011;16507;51.046;6.406;2022-12-11T06:31:03;29.48;;;14.02;;
29574;SDS011;16507;51.046;6.406;2022-12-11T06:33:30;33.20;;;15.13;;
29574;SDS011;16507;51.046;6.406;2022-12-11T06:35:56;33.45;;;17.48;;
29574;SDS011;16507;51.046;6.406;2022-12-11T06:38:26;46.72;;;17.10;;
29574;SDS011;16507;51.046;6.406;2022-12-11T06:40:55;37.05;;;15.75;;
29574;SDS011;16507;51.046;6.406;2022-12-11T06:43:21;46.60;;;16.23;;
29574;SDS011;16507;51.046;6.406;2022-12-11T06:45:47;32.10;;;15.07;;
29574;SDS011;16507;51.046;6.406;2022-12-11T06:48:13;40.67;;;15.85;;
29574;SDS011;16507;51.046;6.406;2022-12-11T06:50:39;31.80;;;14.35;;
29574;SDS011;16507;51.046;6.406;2022-12-11T06:53:04;39.42;;;15.25;;
29574;SDS011;16507;51.046;6.406;2022-12-11T06:55:30;28.92;;;13.90;;
29574;SDS011;16507;51.046;6.406;2022-12-11T06:58:00;25.65;;;13.00;;
29574;SDS011;16507;51.046;6.406;2022-12-11T07:00:25;30.42;;;13.00;;
29574;SDS011;16507;51.046;6.406;2022-12-11T07:02:51;36.85;;;14.32;;
29574;SDS011;16507;51.046;6.406;2022-12-11T07:05:17;27.00;;;13.70;;
29574;SDS011;16507;51.046;6.406;2022-12-11T07:07:42;24.83;;;12.85;;
29574;SDS011;16507;51.046;6.406;2022-12-11T07:10:08;21.95;;;12.82;;
29574;SDS011;16507;51.046;6.406;2022-12-11T07:12:34;30.13;;;13.77;;
29574;SDS011;16507;51.046;6.406;2022-12-11T07:15:00;26.60;;;13.35;;
29574;SDS011;16507;51.046;6.406;2022-12-11T07:17:27;26.23;;;13.52;;
29574;SDS011;16507;51.046;6.406;2022-12-11T07:19:53;45.05;;;14.43;;
29574;SDS011;16507;51.046;6.406;2022-12-11T07:22:19;41.17;;;15.50;;
29574;SDS011;16507;51.046;6.406;2022-12-11T07:24:45;37.35;;;13.88;;
29574;SDS011;16507;51.046;6.406;2022-12-11T07:27:10;34.92;;;13.75;;
29574;SDS011;16507;51.046;6.406;2022-12-11T07:29:36;32.65;;;13.63;;
29574;SDS011;16507;51.046;6.406;2022-12-11T07:32:01;36.30;;;13.55;;
29574;SDS011;16507;51.046;6.406;2022-12-11T07:34:27;24.75;;;13.23;;
29574;SDS011;16507;51.046;6.406;2022-12-11T07:36:53;30.77;;;14.13;;
29574;SDS011;16507;51.046;6.406;2022-12-11T07:39:19;42.03;;;14.70;;
29574;SDS011;16507;51.046;6.406;2022-12-11T07:41:44;26.35;;;13.65;;
29574;SDS011;16507;51.046;6.406;2022-12-11T07:44:11;23.02;;;13.63;;
29574;SDS011;16507;51.046;6.406;2022-12-11T07:46:37;27.38;;;13.13;;
29574;SDS011;16507;51.046;6.406;2022-12-11T07:49:04;29.33;;;15.25;;
29574;SDS011;16507;51.046;6.406;2022-12-11T07:51:30;24.98;;;14.52;;
29574;SDS011;16507;51.046;6.406;2022-12-11T07:53:58;31.20;;;14.88;;
29574;SDS011;16507;51.046;6.406;2022-12-11T07:56:26;33.60;;;15.15;;
29574;SDS011;16507;51.046;6.406;2022-12-11T07:58:53;27.50;;;13.70;;
29574;SDS011;16507;51.046;6.406;2022-12-11T08:01:19;36.70;;;16.15;;
29574;SDS011;16507;51.046;6.406;2022-12-11T08:03:50;33.85;;;15.73;;
29574;SDS011;16507;51.046;6.406;2022-12-11T08:06:16;26.75;;;14.93;;
29574;SDS011;16507;51.046;6.406;2022-12-11T08:08:45;27.23;;;14.88;;
29574;SDS011;16507;51.046;6.406;2022-12-11T08:11:12;30.85;;;15.05;;
29574;SDS011;16507;51.046;6.406;2022-12-11T08:13:39;30.00;;;14.93;;
29574;SDS011;16507;51.046;6.406;2022-12-11T08:16:06;28.35;;;16.05;;
29574;SDS011;16507;51.046;6.406;2022-12-11T08:18:33;28.65;;;15.45;;
29574;SDS011;16507;51.046;6.406;2022-12-11T08:21:04;36.47;;;17.30;;
29574;SDS011;16507;51.046;6.406;2022-12-11T08:23:34;32.63;;;16.23;;
29574;SDS011;16507;51.046;6.406;2022-12-11T08:26:03;40.00;;;16.98;;
29574;SDS011;16507;51.046;6.406;2022-12-11T08:28:30;32.42;;;16.23;;
29574;SDS011;16507;51.046;6.406;2022-12-11T08:30:56;32.35;;;17.30;;
29574;SDS011;16507;51.046;6.406;2022-12-11T08:33:22;31.58;;;16.00;;
29574;SDS011;16507;51.046;6.406;2022-12-11T08:35:48;34.30;;;17.75;;
29574;SDS011;16507;51.046;6.406;2022-12-11T08:38:14;42.28;;;17.90;;
29574;SDS011;16507;51.046;6.406;2022-12-11T08:40:39;35.60;;;18.05;;
29574;SDS011;16507;51.046;6.406;2022-12-11T08:43:05;34.58;;;17.88;;
29574;SDS011;16507;51.046;6.406;2022-12-11T08:45:31;34.28;;;17.75;;
29574;SDS011;16507;51.046;6.406;2022-12-11T08:47:59;35.75;;;16.65;;
29574;SDS011;16507;51.046;6.406;2022-12-11T08:50:25;35.50;;;18.50;;
29574;SDS011;16507;51.046;6.406;2022-12-11T08:52:51;43.65;;;19.88;;
29574;SDS011;16507;51.046;6.406;2022-12-11T08:55:18;39.53;;;18.65;;
29574;SDS011;16507;51.046;6.406;2022-12-11T08:57:44;46.17;;;20.25;;
29574;SDS011;16507;51.046;6.406;2022-12-11T09:00:10;46.30;;;21.55;;
29574;SDS011;16507;51.046;6.406;2022-12-11T09:02:37;50.15;;;22.13;;
29574;SDS011;16507;51.046;6.406;2022-12-11T09:05:03;58.45;;;21.83;;
29574;SDS011;16507;51.046;6.406;2022-12-11T09:07:32;45.35;;;20.90;;
29574;SDS011;16507;51.046;6.406;2022-12-11T09:09:58;47.35;;;20.85;;
29574;SDS011;16507;51.046;6.406;2022-12-11T09:12:24;39.90;;;19.63;;
29574;SDS011;16507;51.046;6.406;2022-12-11T09:14:50;47.42;;;20.85;;
29574;SDS011;16507;51.046;6.406;2022-12-11T09:17:15;40.08;;;19.77;;
29574;SDS011;16507;51.046;6.406;2022-12-11T09:19:41;38.47;;;19.27;;
29574;SDS011;16507;51.046;6.406;2022-12-11T09:22:07;43.85;;;21.75;;
29574;SDS011;16507;51.046;6.406;2022-12-11T09:24:35;39.65;;;20.63;;
29574;SDS011;16507;51.046;6.406;2022-12-11T09:27:01;49.05;;;21.58;;
29574;SDS011;16507;51.046;6.406;2022-12-11T09:29:27;45.22;;;21.85;;
29574;SDS011;16507;51.046;6.406;2022-12-11T09:31:53;56.45;;;21.27;;
29574;SDS011;16507;51.046;6.406;2022-12-11T09:34:19;49.40;;;21.90;;
29574;SDS011;16507;51.046;6.406;2022-12-11T09:36:45;58.78;;;22.42;;
29574;SDS011;16507;51.046;6.406;2022-12-11T09:39:11;56.63;;;22.60;;
29574;SDS011;16507;51.046;6.406;2022-12-11T09:42:13;59.25;;;23.42;;
29574;SDS011;16507;51.046;6.406;2022-12-11T09:45:03;55.95;;;21.65;;
29574;SDS011;16507;51.046;6.406;2022-12-11T09:52:34;50.85;;;20.58;;
29574;SDS011;16507;51.046;6.406;2022-12-11T09:55:20;55.72;;;21.92;;
29574;SDS011;16507;51.046;6.406;2022-12-11T10:06:24;51.50;;;20.67;;
29574;SDS011;16507;51.046;6.406;2022-12-11T10:11:59;45.28;;;21.48;;
29574;SDS011;16507;51.046;6.406;2022-12-11T10:17:11;44.95;;;18.48;;
29574;SDS011;16507;51.046;6.406;2022-12-11T10:19:42;45.90;;;19.58;;
29574;SDS011;16507;51.046;6.406;2022-12-11T10:22:11;50.97;;;21.15;;
29574;SDS011;16507;51.046;6.406;2022-12-11T10:24:51;35.10;;;17.58;;
29574;SDS011;16507;51.046;6.406;2022-12-11T10:27:24;39.60;;;18.45;;
29574;SDS011;16507;51.046;6.406;2022-12-11T10:30:43;43.15;;;19.02;;
29574;SDS011;16507;51.046;6.406;2022-12-11T10:35:35;39.03;;;17.38;;
29574;SDS011;16507;51.046;6.406;2022-12-11T10:38:14;34.33;;;16.77;;
29574;SDS011;16507;51.046;6.406;2022-12-11T10:40:49;38.58;;;18.20;;
29574;SDS011;16507;51.046;6.406;2022-12-11T10:43:19;37.35;;;16.63;;
29574;SDS011;16507;51.046;6.406;2022-12-11T10:45:51;37.58;;;18.08;;
29574;SDS011;16507;51.046;6.406;2022-12-11T10:48:18;37.42;;;18.13;;
29574;SDS011;16507;51.046;6.406;2022-12-11T10:50:45;33.42;;;16.70;;
29574;SDS011;16507;51.046;6.406;2022-12-11T10:53:21;34.63;;;17.60;;
29574;SDS011;16507;51.046;6.406;2022-12-11T10:55:48;29.55;;;16.25;;
29574;SDS011;16507;51.046;6.406;2022-12-11T10:58:16;25.70;;;14.98;;
29574;SDS011;16507;51.046;6.406;2022-12-11T11:03:58;29.20;;;14.63;;
29574;SDS011;16507;51.046;6.406;2022-12-11T11:06:30;27.40;;;14.98;;
29574;SDS011;16507;51.046;6.406;2022-12-11T11:08:56;28.60;;;14.20;;
29574;SDS011;16507;51.046;6.406;2022-12-11T11:11:25;25.05;;;15.13;;
29574;SDS011;16507;51.046;6.406;2022-12-11T11:14:03;33.05;;;16.10;;
29574;SDS011;16507;51.046;6.406;2022-12-11T11:16:29;26.70;;;14.77;;
29574;SDS011;16507;51.046;6.406;2022-12-11T11:18:55;39.88;;;16.02;;
29574;SDS011;16507;51.046;6.406;2022-12-11T11:21:22;25.45;;;14.45;;
29574;SDS011;16507;51.046;6.406;2022-12-11T11:23:50;27.85;;;15.15;;
29574;SDS011;16507;51.046;6.406;2022-12-11T11:26:17;29.65;;;15.77;;
29574;SDS011;16507;51.046;6.406;2022-12-11T11:28:51;32.35;;;16.60;;
29574;SDS011;16507;51.046;6.406;2022-12-11T11:31:19;34.83;;;16.25;;
29574;SDS011;16507;51.046;6.406;2022-12-11T11:36:28;33.30;;;16.02;;
29574;SDS011;16507;51.046;6.406;2022-12-11T11:41:59;29.95;;;15.90;;
29574;SDS011;16507;51.046;6.406;2022-12-11T11:44:38;36.90;;;15.88;;
29574;SDS011;16507;51.046;6.406;2022-12-11T11:47:13;29.80;;;15.93;;
29574;SDS011;16507;51.046;6.406;2022-12-11T11:50:03;32.47;;;15.50;;
29574;SDS011;16507;51.046;6.406;2022-12-11T11:52:37;31.17;;;16.60;;
29574;SDS011;16507;51.046;6.406;2022-12-11T11:55:31;35.60;;;15.80;;
29574;SDS011;16507;51.046;6.406;2022-12-11T12:00:46;36.28;;;17.75;;
29574;SDS011;16507;51.046;6.406;2022-12-11T12:03:17;34.85;;;17.10;;
29574;SDS011;16507;51.046;6.406;2022-12-11T12:08:40;37.08;;;16.92;;
29574;SDS011;16507;51.046;6.406;2022-12-11T12:14:23;32.55;;;16.98;;
29574;SDS011;16507;51.046;6.406;2022-12-11T12:19:27;38.17;;;15.10;;
29574;SDS011;16507;51.046;6.406;2022-12-11T12:25:24;33.55;;;16.70;;
29574;SDS011;16507;51.046;6.406;2022-12-11T12:30:30;38.33;;;17.65;;
29574;SDS011;16507;51.046;6.406;2022-12-11T12:33:17;32.33;;;16.17;;
29574;SDS011;16507;51.046;6.406;2022-12-11T12:36:00;37.63;;;16.95;;
29574;SDS011;16507;51.046;6.406;2022-12-11T12:43:51;27.95;;;15.45;;
29574;SDS011;16507;51.046;6.406;2022-12-11T12:48:58;30.50;;;16.23;;
29574;SDS011;16507;51.046;6.406;2022-12-11T12:51:25;30.70;;;14.73;;
29574;SDS011;16507;51.046;6.406;2022-12-11T12:53:55;29.52;;;15.40;;
29574;SDS011;16507;51.046;6.406;2022-12-11T12:56:26;30.50;;;16.08;;
29574;SDS011;16507;51.046;6.406;2022-12-11T12:58:55;26.85;;;14.90;;
29574;SDS011;16507;51.046;6.406;2022-12-11T13:01:22;27.65;;;15.35;;
29574;SDS011;16507;51.046;6.406;2022-12-11T13:04:03;27.38;;;14.77;;
29574;SDS011;16507;51.046;6.406;2022-12-11T13:06:33;27.20;;;15.40;;
29574;SDS011;16507;51.046;6.406;2022-12-11T13:11:44;32.42;;;16.90;;
29574;SDS011;16507;51.046;6.406;2022-12-11T13:16:46;38.63;;;17.20;;
29574;SDS011;16507;51.046;6.406;2022-12-11T13:19:17;42.97;;;17.27;;
29574;SDS011;16507;51.046;6.406;2022-12-11T13:26:46;34.60;;;16.73;;
29574;SDS011;16507;51.046;6.406;2022-12-11T13:34:52;32.70;;;16.08;;
29574;SDS011;16507;51.046;6.406;2022-12-11T13:37:33;39.80;;;17.05;;
29574;SDS011;16507;51.046;6.406;2022-12-11T13:40:04;35.13;;;16.42;;
29574;SDS011;16507;51.046;6.406;2022-12-11T13:42:34;35.90;;;16.98;;
29574;SDS011;16507;51.046;6.406;2022-12-11T13:45:04;24.45;;;11.73;;
29574;SDS011;16507;51.046;6.406;2022-12-11T13:47:31;39.95;;;17.38;;
29574;SDS011;16507;51.046;6.406;2022-12-11T13:53:01;39.28;;;17.40;;
29574;SDS011;16507;51.046;6.406;2022-12-11T13:55:32;33.08;;;17.08;;
29574;SDS011;16507;51.046;6.406;2022-12-11T13:57:58;44.85;;;17.60;;
29574;SDS011;16507;51.046;6.406;2022-12-11T14:00:25;35.72;;;15.98;;
29574;SDS011;16507;51.046;6.406;2022-12-11T14:02:57;29.58;;;14.38;;
29574;SDS011;16507;51.046;6.406;2022-12-11T14:05:25;26.17;;;14.18;;
29574;SDS011;16507;51.046;6.406;2022-12-11T14:07:52;28.83;;;13.73;;
29574;SDS011;16507;51.046;6.406;2022-12-11T14:10:21;17.98;;;11.35;;
29574;SDS011;16507;51.046;6.406;2022-12-11T14:15:17;21.33;;;12.55;;
29574;SDS011;16507;51.046;6.406;2022-12-11T14:17:43;20.73;;;12.30;;
29574;SDS011;16507;51.046;6.406;2022-12-11T14:20:14;19.33;;;12.20;;
29574;SDS011;16507;51.046;6.406;2022-12-11T14:22:46;20.23;;;11.93;;
29574;SDS011;16507;51.046;6.406;2022-12-11T14:25:22;19.90;;;12.57;;
29574;SDS011;16507;51.046;6.406;2022-12-11T14:27:51;20.80;;;12.50;;
29574;SDS011;16507;51.046;6.406;2022-12-11T14:30:29;20.00;;;13.07;;
29574;SDS011;16507;51.046;6.406;2022-12-11T14:32:57;23.90;;;13.27;;
29574;SDS011;16507;51.046;6.406;2022-12-11T14:35:27;21.65;;;12.75;;
29574;SDS011;16507;51.046;6.406;2022-12-11T14:37:56;24.27;;;13.98;;
29574;SDS011;16507;51.046;6.406;2022-12-11T14:40:27;21.20;;;13.20;;
29574;SDS011;16507;51.046;6.406;2022-12-11T14:43:00;25.50;;;13.65;;
29574;SDS011;16507;51.046;6.406;2022-12-11T14:45:32;25.45;;;13.43;;
29574;SDS011;16507;51.046;6.406;2022-12-11T14:48:01;21.45;;;13.07;;
29574;SDS011;16507;51.046;6.406;2022-12-11T14:53:07;26.92;;;15.18;;
29574;SDS011;16507;51.046;6.406;2022-12-11T14:55:37;27.60;;;14.07;;
29574;SDS011;16507;51.046;6.406;2022-12-11T14:58:14;24.13;;;13.68;;
29574;SDS011;16507;51.046;6.406;2022-12-11T15:00:58;25.52;;;14.20;;
29574;SDS011;16507;51.046;6.406;2022-12-11T15:03:33;23.23;;;13.48;;
29574;SDS011;16507;51.046;6.406;2022-12-11T15:06:01;24.38;;;14.23;;
29574;SDS011;16507;51.046;6.406;2022-12-11T15:08:44;26.25;;;14.35;;
29574;SDS011;16507;51.046;6.406;2022-12-11T15:11:11;26.15;;;14.60;;
29574;SDS011;16507;51.046;6.406;2022-12-11T15:13:50;24.67;;;14.00;;
29574;SDS011;16507;51.046;6.406;2022-12-11T15:16:16;24.27;;;13.90;;
29574;SDS011;16507;51.046;6.406;2022-12-11T15:18:46;36.22;;;15.10;;
29574;SDS011;16507;51.046;6.406;2022-12-11T15:21:14;21.50;;;12.52;;
29574;SDS011;16507;51.046;6.406;2022-12-11T15:26:09;28.15;;;14.10;;
29574;SDS011;16507;51.046;6.406;2022-12-11T15:28:35;19.98;;;12.43;;
29574;SDS011;16507;51.046;6.406;2022-12-11T15:33:49;23.13;;;12.82;;
29574;SDS011;16507;51.046;6.406;2022-12-11T15:38:55;26.92;;;14.15;;
29574;SDS011;16507;51.046;6.406;2022-12-11T15:41:21;24.73;;;13.75;;
29574;SDS011;16507;51.046;6.406;2022-12-11T15:43:48;22.23;;;13.05;;
29574;SDS011;16507;51.046;6.406;2022-12-11T15:46:16;30.40;;;14.93;;
29574;SDS011;16507;51.046;6.406;2022-12-11T15:48:42;22.67;;;13.57;;
29574;SDS011;16507;51.046;6.406;2022-12-11T15:51:08;25.77;;;13.70;;
29574;SDS011;16507;51.046;6.406;2022-12-11T15:53:34;34.33;;;14.98;;
29574;SDS011;16507;51.046;6.406;2022-12-11T15:56:00;26.45;;;12.25;;
29574;SDS011;16507;51.046;6.406;2022-12-11T15:58:26;21.08;;;12.85;;
29574;SDS011;16507;51.046;6.406;2022-12-11T16:00:52;34.13;;;13.63;;
29574;SDS011;16507;51.046;6.406;2022-12-11T16:03:19;36.28;;;14.60;;
29574;SDS011;16507;51.046;6.406;2022-12-11T16:05:47;46.85;;;13.98;;
29574;SDS011;16507;51.046;6.406;2022-12-11T16:08:16;25.17;;;14.00;;
29574;SDS011;16507;51.046;6.406;2022-12-11T16:10:45;22.35;;;13.43;;
29574;SDS011;16507;51.046;6.406;2022-12-11T16:13:12;21.83;;;12.70;;